sensor_id;sensor_type;location;lat;lon;timestamp;P1;durP1;ratioP1;P2;durP2;ratioP2
65853;SDS011;52627;48.838;2.402;2022-12-11T00:00:20;28.20;;;12.60;;
65853;SDS011;52627;48.838;2.402;2022-12-11T00:02:47;32.70;;;13.20;;
65853;SDS011;52627;48.838;2.402;2022-12-11T00:05:14;27.50;;;12.70;;
65853;SDS011;52627;48.838;2.402;2022-12-11T00:07:41;24.60;;;11.70;;
65853;SDS011;52627;48.838;2.402;2022-12-11T00:10:08;27.10;;;12.00;;
65853;SDS011;52627;48.838;2.402;2022-12-11T00:12:35;24.00;;;11.20;;
65853;SDS011;52627;48.838;2.402;2022-12-11T00:15:02;24.50;;;12.20;;
65853;SDS011;52627;48.838;2.402;2022-12-11T00:17:29;25.40;;;11.90;;
65853;SDS011;52627;48.838;2.402;2022-12-11T00:19:55;26.10;;;12.10;;
65853;SDS011;52627;48.838;2.402;2022-12-11T00:22:22;24.20;;;12.20;;
65853;SDS011;52627;48.838;2.402;2022-12-11T00:24:50;25.50;;;11.80;;
65853;SDS011;52627;48.838;2.402;2022-12-11T00:27:16;27.30;;;12.40;;
65853;SDS011;52627;48.838;2.402;2022-12-11T00:29:43;32.20;;;12.20;;
65853;SDS011;52627;48.838;2.402;2022-12-11T00:32:10;26.70;;;12.40;;
65853;SDS011;52627;48.838;2.402;2022-12-11T00:34:37;25.00;;;12.40;;
65853;SDS011;52627;48.838;2.402;2022-12-11T00:37:04;25.60;;;11.80;;
65853;SDS011;52627;48.838;2.402;2022-12-11T00:39:31;26.10;;;11.60;;
65853;SDS011;52627;48.838;2.402;2022-12-11T00:41:57;22.60;;;11.70;;
65853;SDS011;52627;48.838;2.402;2022-12-11T00:44:24;22.00;;;10.70;;
65853;SDS011;52627;48.838;2.402;2022-12-11T00:46:51;23.30;;;11.40;;
65853;SDS011;52627;48.838;2.402;2022-12-11T00:49:18;25.10;;;10.70;;
65853;SDS011;52627;48.838;2.402;2022-12-11T00:51:45;21.10;;;10.60;;
65853;SDS011;52627;48.838;2.402;2022-12-11T00:54:11;22.60;;;9.80;;
65853;SDS011;52627;48.838;2.402;2022-12-11T00:56:38;22.60;;;10.80;;
65853;SDS011;52627;48.838;2.402;2022-12-11T00:59:05;24.50;;;10.20;;
65853;SDS011;52627;48.838;2.402;2022-12-11T01:01:32;22.40;;;10.90;;
65853;SDS011;52627;48.838;2.402;2022-12-11T01:03:59;23.80;;;10.30;;
65853;SDS011;52627;48.838;2.402;2022-12-11T01:06:27;21.50;;;9.30;;
65853;SDS011;52627;48.838;2.402;2022-12-11T01:08:55;21.90;;;9.30;;
65853;SDS011;52627;48.838;2.402;2022-12-11T01:11:41;23.40;;;10.50;;
65853;SDS011;52627;48.838;2.402;2022-12-11T01:14:09;24.10;;;11.60;;
65853;SDS011;52627;48.838;2.402;2022-12-11T01:16:37;19.30;;;9.80;;
65853;SDS011;52627;48.838;2.402;2022-12-11T01:19:03;24.20;;;10.20;;
65853;SDS011;52627;48.838;2.402;2022-12-11T01:21:30;21.40;;;8.90;;
65853;SDS011;52627;48.838;2.402;2022-12-11T01:23:57;18.40;;;9.30;;
65853;SDS011;52627;48.838;2.402;2022-12-11T01:26:24;17.90;;;8.50;;
65853;SDS011;52627;48.838;2.402;2022-12-11T01:28:51;16.50;;;7.30;;
65853;SDS011;52627;48.838;2.402;2022-12-11T01:31:18;16.80;;;7.60;;
65853;SDS011;52627;48.838;2.402;2022-12-11T01:33:46;15.30;;;6.90;;
65853;SDS011;52627;48.838;2.402;2022-12-11T01:36:16;17.60;;;7.90;;
65853;SDS011;52627;48.838;2.402;2022-12-11T01:38:45;15.90;;;8.20;;
65853;SDS011;52627;48.838;2.402;2022-12-11T01:41:14;22.10;;;9.40;;
65853;SDS011;52627;48.838;2.402;2022-12-11T01:46:30;17.20;;;8.60;;
65853;SDS011;52627;48.838;2.402;2022-12-11T01:48:58;18.10;;;8.30;;
65853;SDS011;52627;48.838;2.402;2022-12-11T01:51:28;17.60;;;8.30;;
65853;SDS011;52627;48.838;2.402;2022-12-11T01:54:04;18.50;;;8.40;;
65853;SDS011;52627;48.838;2.402;2022-12-11T01:56:35;16.80;;;7.90;;
65853;SDS011;52627;48.838;2.402;2022-12-11T01:59:04;18.40;;;8.50;;
65853;SDS011;52627;48.838;2.402;2022-12-11T02:01:39;15.60;;;7.10;;
65853;SDS011;52627;48.838;2.402;2022-12-11T02:04:09;14.50;;;7.80;;
65853;SDS011;52627;48.838;2.402;2022-12-11T02:06:39;15.00;;;7.00;;
65853;SDS011;52627;48.838;2.402;2022-12-11T02:09:16;14.80;;;7.10;;
65853;SDS011;52627;48.838;2.402;2022-12-11T02:14:29;19.10;;;8.00;;
65853;SDS011;52627;48.838;2.402;2022-12-11T02:17:13;13.60;;;6.80;;
65853;SDS011;52627;48.838;2.402;2022-12-11T02:28:47;17.10;;;7.80;;
65853;SDS011;52627;48.838;2.402;2022-12-11T02:31:23;17.00;;;7.50;;
65853;SDS011;52627;48.838;2.402;2022-12-11T02:36:48;14.40;;;6.60;;
65853;SDS011;52627;48.838;2.402;2022-12-11T02:39:20;13.50;;;7.10;;
65853;SDS011;52627;48.838;2.402;2022-12-11T02:41:50;14.60;;;6.80;;
65853;SDS011;52627;48.838;2.402;2022-12-11T02:44:24;16.20;;;7.50;;
65853;SDS011;52627;48.838;2.402;2022-12-11T02:46:53;17.70;;;7.90;;
65853;SDS011;52627;48.838;2.402;2022-12-11T02:49:21;17.80;;;7.60;;
65853;SDS011;52627;48.838;2.402;2022-12-11T02:51:50;16.80;;;7.90;;
65853;SDS011;52627;48.838;2.402;2022-12-11T02:54:28;18.20;;;8.40;;
65853;SDS011;52627;48.838;2.402;2022-12-11T02:57:10;19.20;;;8.10;;
65853;SDS011;52627;48.838;2.402;2022-12-11T02:59:44;19.60;;;9.30;;
65853;SDS011;52627;48.838;2.402;2022-12-11T03:02:12;20.00;;;8.90;;
65853;SDS011;52627;48.838;2.402;2022-12-11T03:04:41;20.30;;;9.20;;
65853;SDS011;52627;48.838;2.402;2022-12-11T03:07:14;21.40;;;8.80;;
65853;SDS011;52627;48.838;2.402;2022-12-11T03:09:46;19.40;;;8.60;;
65853;SDS011;52627;48.838;2.402;2022-12-11T03:12:17;19.70;;;8.30;;
65853;SDS011;52627;48.838;2.402;2022-12-11T03:14:47;14.70;;;5.90;;
65853;SDS011;52627;48.838;2.402;2022-12-11T03:17:18;12.40;;;6.00;;
65853;SDS011;52627;48.838;2.402;2022-12-11T03:19:49;13.90;;;6.20;;
65853;SDS011;52627;48.838;2.402;2022-12-11T03:22:30;15.80;;;7.20;;
65853;SDS011;52627;48.838;2.402;2022-12-11T03:25:06;14.70;;;6.70;;
65853;SDS011;52627;48.838;2.402;2022-12-11T03:27:49;16.30;;;6.90;;
65853;SDS011;52627;48.838;2.402;2022-12-11T03:30:22;15.00;;;6.60;;
65853;SDS011;52627;48.838;2.402;2022-12-11T03:33:05;15.00;;;7.20;;
65853;SDS011;52627;48.838;2.402;2022-12-11T03:35:48;17.90;;;7.70;;
65853;SDS011;52627;48.838;2.402;2022-12-11T03:38:24;17.60;;;7.70;;
65853;SDS011;52627;48.838;2.402;2022-12-11T03:40:59;17.90;;;8.10;;
65853;SDS011;52627;48.838;2.402;2022-12-11T03:43:28;16.60;;;7.60;;
65853;SDS011;52627;48.838;2.402;2022-12-11T03:45:58;15.80;;;7.00;;
65853;SDS011;52627;48.838;2.402;2022-12-11T03:48:30;16.00;;;7.60;;
65853;SDS011;52627;48.838;2.402;2022-12-11T03:51:00;16.00;;;6.40;;
65853;SDS011;52627;48.838;2.402;2022-12-11T03:55:58;17.00;;;6.40;;
65853;SDS011;52627;48.838;2.402;2022-12-11T03:58:26;17.10;;;6.70;;
65853;SDS011;52627;48.838;2.402;2022-12-11T04:00:52;13.70;;;6.30;;
65853;SDS011;52627;48.838;2.402;2022-12-11T04:03:19;12.80;;;6.40;;
65853;SDS011;52627;48.838;2.402;2022-12-11T04:05:48;14.30;;;6.30;;
65853;SDS011;52627;48.838;2.402;2022-12-11T04:08:18;12.20;;;6.20;;
65853;SDS011;52627;48.838;2.402;2022-12-11T04:10:49;14.80;;;6.60;;
65853;SDS011;52627;48.838;2.402;2022-12-11T04:13:40;11.70;;;5.60;;
65853;SDS011;52627;48.838;2.402;2022-12-11T04:16:08;12.10;;;5.50;;
65853;SDS011;52627;48.838;2.402;2022-12-11T04:18:35;14.30;;;5.80;;
65853;SDS011;52627;48.838;2.402;2022-12-11T04:21:20;13.30;;;6.10;;
65853;SDS011;52627;48.838;2.402;2022-12-11T04:24:06;13.30;;;6.70;;
65853;SDS011;52627;48.838;2.402;2022-12-11T04:26:45;11.20;;;5.90;;
65853;SDS011;52627;48.838;2.402;2022-12-11T04:29:13;12.50;;;6.00;;
65853;SDS011;52627;48.838;2.402;2022-12-11T04:31:40;15.10;;;6.30;;
65853;SDS011;52627;48.838;2.402;2022-12-11T04:34:07;13.70;;;6.70;;
65853;SDS011;52627;48.838;2.402;2022-12-11T04:36:34;15.10;;;7.10;;
65853;SDS011;52627;48.838;2.402;2022-12-11T04:39:03;14.90;;;6.70;;
65853;SDS011;52627;48.838;2.402;2022-12-11T04:41:30;12.90;;;6.00;;
65853;SDS011;52627;48.838;2.402;2022-12-11T04:43:57;12.60;;;5.20;;
65853;SDS011;52627;48.838;2.402;2022-12-11T04:46:24;12.60;;;6.00;;
65853;SDS011;52627;48.838;2.402;2022-12-11T04:48:51;15.70;;;6.90;;
65853;SDS011;52627;48.838;2.402;2022-12-11T04:51:23;14.00;;;6.60;;
65853;SDS011;52627;48.838;2.402;2022-12-11T04:53:50;13.00;;;5.60;;
65853;SDS011;52627;48.838;2.402;2022-12-11T04:56:18;14.20;;;6.10;;
65853;SDS011;52627;48.838;2.402;2022-12-11T04:58:45;14.50;;;6.50;;
65853;SDS011;52627;48.838;2.402;2022-12-11T05:01:17;16.40;;;7.20;;
65853;SDS011;52627;48.838;2.402;2022-12-11T05:03:46;14.00;;;6.20;;
65853;SDS011;52627;48.838;2.402;2022-12-11T05:06:13;13.90;;;7.10;;
65853;SDS011;52627;48.838;2.402;2022-12-11T05:08:41;15.00;;;6.30;;
65853;SDS011;52627;48.838;2.402;2022-12-11T05:11:11;17.00;;;7.00;;
65853;SDS011;52627;48.838;2.402;2022-12-11T05:13:39;13.30;;;5.80;;
65853;SDS011;52627;48.838;2.402;2022-12-11T05:16:08;15.20;;;6.80;;
65853;SDS011;52627;48.838;2.402;2022-12-11T05:18:36;15.60;;;6.50;;
65853;SDS011;52627;48.838;2.402;2022-12-11T05:21:08;16.20;;;6.80;;
65853;SDS011;52627;48.838;2.402;2022-12-11T05:23:37;12.50;;;5.80;;
65853;SDS011;52627;48.838;2.402;2022-12-11T05:26:07;11.90;;;5.40;;
65853;SDS011;52627;48.838;2.402;2022-12-11T05:28:37;14.20;;;5.70;;
65853;SDS011;52627;48.838;2.402;2022-12-11T05:31:08;13.60;;;6.20;;
65853;SDS011;52627;48.838;2.402;2022-12-11T05:33:38;15.60;;;6.50;;
65853;SDS011;52627;48.838;2.402;2022-12-11T05:36:06;12.70;;;5.90;;
65853;SDS011;52627;48.838;2.402;2022-12-11T05:38:33;12.80;;;6.10;;
65853;SDS011;52627;48.838;2.402;2022-12-11T05:41:02;13.40;;;6.60;;
65853;SDS011;52627;48.838;2.402;2022-12-11T05:43:33;14.20;;;6.30;;
65853;SDS011;52627;48.838;2.402;2022-12-11T05:46:13;14.40;;;6.40;;
65853;SDS011;52627;48.838;2.402;2022-12-11T05:48:40;15.80;;;6.70;;
65853;SDS011;52627;48.838;2.402;2022-12-11T05:51:08;17.30;;;7.60;;
65853;SDS011;52627;48.838;2.402;2022-12-11T05:53:37;15.50;;;7.20;;
65853;SDS011;52627;48.838;2.402;2022-12-11T05:56:11;14.30;;;6.70;;
65853;SDS011;52627;48.838;2.402;2022-12-11T05:58:40;14.40;;;6.70;;
65853;SDS011;52627;48.838;2.402;2022-12-11T06:01:14;19.20;;;7.50;;
65853;SDS011;52627;48.838;2.402;2022-12-11T06:03:42;16.10;;;8.00;;
65853;SDS011;52627;48.838;2.402;2022-12-11T06:06:10;15.80;;;8.00;;
65853;SDS011;52627;48.838;2.402;2022-12-11T06:08:38;18.90;;;8.10;;
65853;SDS011;52627;48.838;2.402;2022-12-11T06:11:05;17.70;;;8.10;;
65853;SDS011;52627;48.838;2.402;2022-12-11T06:13:32;20.20;;;8.50;;
65853;SDS011;52627;48.838;2.402;2022-12-11T06:16:05;17.70;;;8.10;;
65853;SDS011;52627;48.838;2.402;2022-12-11T06:18:37;18.30;;;7.80;;
65853;SDS011;52627;48.838;2.402;2022-12-11T06:21:12;21.40;;;8.30;;
65853;SDS011;52627;48.838;2.402;2022-12-11T06:23:42;19.50;;;8.20;;
65853;SDS011;52627;48.838;2.402;2022-12-11T06:26:09;19.00;;;8.40;;
65853;SDS011;52627;48.838;2.402;2022-12-11T06:28:37;19.60;;;8.50;;
65853;SDS011;52627;48.838;2.402;2022-12-11T06:31:04;20.40;;;8.90;;
65853;SDS011;52627;48.838;2.402;2022-12-11T06:33:31;18.40;;;8.30;;
65853;SDS011;52627;48.838;2.402;2022-12-11T06:36:05;20.50;;;9.60;;
65853;SDS011;52627;48.838;2.402;2022-12-11T06:38:34;20.30;;;8.80;;
65853;SDS011;52627;48.838;2.402;2022-12-11T06:41:03;21.50;;;9.10;;
65853;SDS011;52627;48.838;2.402;2022-12-11T06:43:32;25.00;;;10.80;;
65853;SDS011;52627;48.838;2.402;2022-12-11T06:46:04;26.20;;;10.50;;
65853;SDS011;52627;48.838;2.402;2022-12-11T06:48:38;24.10;;;10.40;;
65853;SDS011;52627;48.838;2.402;2022-12-11T06:51:11;25.50;;;11.20;;
65853;SDS011;52627;48.838;2.402;2022-12-11T06:53:42;30.40;;;10.40;;
65853;SDS011;52627;48.838;2.402;2022-12-11T06:56:13;31.60;;;14.50;;
65853;SDS011;52627;48.838;2.402;2022-12-11T06:58:41;30.90;;;13.60;;
65853;SDS011;52627;48.838;2.402;2022-12-11T07:01:27;30.80;;;14.50;;
65853;SDS011;52627;48.838;2.402;2022-12-11T07:03:55;35.40;;;15.40;;
65853;SDS011;52627;48.838;2.402;2022-12-11T07:06:24;35.10;;;15.20;;
65853;SDS011;52627;48.838;2.402;2022-12-11T07:08:52;32.50;;;15.00;;
65853;SDS011;52627;48.838;2.402;2022-12-11T07:11:20;38.60;;;17.50;;
65853;SDS011;52627;48.838;2.402;2022-12-11T07:13:47;35.50;;;18.20;;
65853;SDS011;52627;48.838;2.402;2022-12-11T07:16:15;32.90;;;16.20;;
65853;SDS011;52627;48.838;2.402;2022-12-11T07:18:46;33.10;;;15.80;;
65853;SDS011;52627;48.838;2.402;2022-12-11T07:21:15;35.10;;;15.80;;
65853;SDS011;52627;48.838;2.402;2022-12-11T07:23:42;37.10;;;16.70;;
65853;SDS011;52627;48.838;2.402;2022-12-11T07:26:12;32.50;;;16.40;;
65853;SDS011;52627;48.838;2.402;2022-12-11T07:28:40;34.10;;;16.30;;
65853;SDS011;52627;48.838;2.402;2022-12-11T07:31:10;33.50;;;15.60;;
65853;SDS011;52627;48.838;2.402;2022-12-11T07:33:39;36.90;;;17.90;;
65853;SDS011;52627;48.838;2.402;2022-12-11T07:36:08;37.20;;;16.40;;
65853;SDS011;52627;48.838;2.402;2022-12-11T07:38:36;36.50;;;17.10;;
65853;SDS011;52627;48.838;2.402;2022-12-11T07:41:05;33.10;;;16.40;;
65853;SDS011;52627;48.838;2.402;2022-12-11T07:43:34;32.70;;;15.30;;
65853;SDS011;52627;48.838;2.402;2022-12-11T07:46:06;34.10;;;16.50;;
65853;SDS011;52627;48.838;2.402;2022-12-11T07:48:39;35.00;;;17.80;;
65853;SDS011;52627;48.838;2.402;2022-12-11T07:51:20;37.00;;;17.00;;
65853;SDS011;52627;48.838;2.402;2022-12-11T07:53:54;34.40;;;17.00;;
65853;SDS011;52627;48.838;2.402;2022-12-11T07:56:24;33.90;;;17.50;;
65853;SDS011;52627;48.838;2.402;2022-12-11T07:58:52;37.40;;;16.50;;
65853;SDS011;52627;48.838;2.402;2022-12-11T08:01:22;34.70;;;17.60;;
65853;SDS011;52627;48.838;2.402;2022-12-11T08:03:52;36.40;;;17.00;;
65853;SDS011;52627;48.838;2.402;2022-12-11T08:06:19;34.90;;;17.30;;
65853;SDS011;52627;48.838;2.402;2022-12-11T08:08:55;34.50;;;16.90;;
65853;SDS011;52627;48.838;2.402;2022-12-11T08:11:22;34.40;;;17.90;;
65853;SDS011;52627;48.838;2.402;2022-12-11T08:13:50;38.60;;;18.00;;
65853;SDS011;52627;48.838;2.402;2022-12-11T08:16:17;35.10;;;17.40;;
65853;SDS011;52627;48.838;2.402;2022-12-11T08:18:45;32.90;;;15.70;;
65853;SDS011;52627;48.838;2.402;2022-12-11T08:21:15;35.10;;;17.00;;
65853;SDS011;52627;48.838;2.402;2022-12-11T08:23:44;31.80;;;15.50;;
65853;SDS011;52627;48.838;2.402;2022-12-11T08:26:17;34.50;;;17.20;;
65853;SDS011;52627;48.838;2.402;2022-12-11T08:28:45;33.50;;;17.00;;
65853;SDS011;52627;48.838;2.402;2022-12-11T08:31:13;32.60;;;15.80;;
65853;SDS011;52627;48.838;2.402;2022-12-11T08:33:41;36.90;;;16.50;;
65853;SDS011;52627;48.838;2.402;2022-12-11T08:36:10;31.50;;;15.90;;
65853;SDS011;52627;48.838;2.402;2022-12-11T08:38:39;30.40;;;14.70;;
65853;SDS011;52627;48.838;2.402;2022-12-11T08:41:10;29.90;;;14.80;;
65853;SDS011;52627;48.838;2.402;2022-12-11T08:43:42;31.80;;;15.90;;
65853;SDS011;52627;48.838;2.402;2022-12-11T08:46:09;31.80;;;15.10;;
65853;SDS011;52627;48.838;2.402;2022-12-11T08:48:39;30.40;;;14.20;;
65853;SDS011;52627;48.838;2.402;2022-12-11T08:51:12;28.70;;;14.80;;
65853;SDS011;52627;48.838;2.402;2022-12-11T08:53:41;30.90;;;15.60;;
65853;SDS011;52627;48.838;2.402;2022-12-11T08:56:10;32.10;;;15.60;;
65853;SDS011;52627;48.838;2.402;2022-12-11T08:58:41;26.90;;;13.10;;
65853;SDS011;52627;48.838;2.402;2022-12-11T09:01:11;32.10;;;15.90;;
65853;SDS011;52627;48.838;2.402;2022-12-11T09:03:41;32.10;;;15.10;;
65853;SDS011;52627;48.838;2.402;2022-12-11T09:06:11;30.30;;;15.80;;
65853;SDS011;52627;48.838;2.402;2022-12-11T09:08:40;31.00;;;14.90;;
65853;SDS011;52627;48.838;2.402;2022-12-11T09:11:19;31.80;;;14.70;;
65853;SDS011;52627;48.838;2.402;2022-12-11T09:13:47;33.50;;;15.90;;
65853;SDS011;52627;48.838;2.402;2022-12-11T09:16:17;31.20;;;15.20;;
65853;SDS011;52627;48.838;2.402;2022-12-11T09:18:47;25.70;;;13.10;;
65853;SDS011;52627;48.838;2.402;2022-12-11T09:21:18;29.50;;;14.50;;
65853;SDS011;52627;48.838;2.402;2022-12-11T09:23:46;29.10;;;14.00;;
65853;SDS011;52627;48.838;2.402;2022-12-11T09:26:16;28.20;;;13.50;;
65853;SDS011;52627;48.838;2.402;2022-12-11T09:28:43;25.30;;;13.70;;
65853;SDS011;52627;48.838;2.402;2022-12-11T09:31:25;27.30;;;14.30;;
65853;SDS011;52627;48.838;2.402;2022-12-11T09:33:56;27.00;;;13.40;;
65853;SDS011;52627;48.838;2.402;2022-12-11T09:36:25;26.90;;;13.50;;
65853;SDS011;52627;48.838;2.402;2022-12-11T09:38:53;24.20;;;13.70;;
65853;SDS011;52627;48.838;2.402;2022-12-11T09:46:56;24.90;;;12.80;;
65853;SDS011;52627;48.838;2.402;2022-12-11T09:54:48;25.90;;;13.30;;
65853;SDS011;52627;48.838;2.402;2022-12-11T10:00:25;25.40;;;13.20;;
65853;SDS011;52627;48.838;2.402;2022-12-11T10:06:11;29.70;;;13.60;;
65853;SDS011;52627;48.838;2.402;2022-12-11T10:17:19;24.80;;;13.10;;
65853;SDS011;52627;48.838;2.402;2022-12-11T10:19:48;24.80;;;12.70;;
65853;SDS011;52627;48.838;2.402;2022-12-11T10:22:28;25.30;;;12.90;;
65853;SDS011;52627;48.838;2.402;2022-12-11T10:25:00;28.00;;;13.50;;
65853;SDS011;52627;48.838;2.402;2022-12-11T10:30:18;26.20;;;14.00;;
65853;SDS011;52627;48.838;2.402;2022-12-11T10:33:18;29.70;;;14.30;;
65853;SDS011;52627;48.838;2.402;2022-12-11T10:35:54;23.30;;;12.10;;
65853;SDS011;52627;48.838;2.402;2022-12-11T10:38:33;27.10;;;14.20;;
65853;SDS011;52627;48.838;2.402;2022-12-11T10:43:41;25.80;;;12.60;;
65853;SDS011;52627;48.838;2.402;2022-12-11T10:46:26;25.40;;;13.50;;
65853;SDS011;52627;48.838;2.402;2022-12-11T10:48:56;21.30;;;11.40;;
65853;SDS011;52627;48.838;2.402;2022-12-11T10:54:02;21.60;;;10.40;;
65853;SDS011;52627;48.838;2.402;2022-12-11T10:56:45;21.20;;;10.80;;
65853;SDS011;52627;48.838;2.402;2022-12-11T10:59:29;20.50;;;10.60;;
65853;SDS011;52627;48.838;2.402;2022-12-11T11:01:59;20.10;;;10.20;;
65853;SDS011;52627;48.838;2.402;2022-12-11T11:04:30;22.20;;;10.60;;
65853;SDS011;52627;48.838;2.402;2022-12-11T11:07:03;24.10;;;11.30;;
65853;SDS011;52627;48.838;2.402;2022-12-11T11:09:40;20.30;;;10.90;;
65853;SDS011;52627;48.838;2.402;2022-12-11T11:15:02;19.90;;;10.80;;
65853;SDS011;52627;48.838;2.402;2022-12-11T11:17:31;19.60;;;9.70;;
65853;SDS011;52627;48.838;2.402;2022-12-11T11:20:12;22.30;;;10.80;;
65853;SDS011;52627;48.838;2.402;2022-12-11T11:22:48;18.20;;;10.00;;
65853;SDS011;52627;48.838;2.402;2022-12-11T11:25:20;18.60;;;10.70;;
65853;SDS011;52627;48.838;2.402;2022-12-11T11:27:50;22.20;;;12.20;;
65853;SDS011;52627;48.838;2.402;2022-12-11T11:33:01;25.00;;;12.20;;
65853;SDS011;52627;48.838;2.402;2022-12-11T11:35:30;21.20;;;11.30;;
65853;SDS011;52627;48.838;2.402;2022-12-11T11:38:18;21.50;;;11.40;;
65853;SDS011;52627;48.838;2.402;2022-12-11T11:40:57;20.90;;;11.70;;
65853;SDS011;52627;48.838;2.402;2022-12-11T11:43:43;22.80;;;11.00;;
65853;SDS011;52627;48.838;2.402;2022-12-11T11:46:22;20.90;;;11.30;;
65853;SDS011;52627;48.838;2.402;2022-12-11T11:49:11;20.80;;;10.90;;
65853;SDS011;52627;48.838;2.402;2022-12-11T11:51:55;21.90;;;11.30;;
65853;SDS011;52627;48.838;2.402;2022-12-11T11:54:36;20.00;;;11.50;;
65853;SDS011;52627;48.838;2.402;2022-12-11T11:57:19;20.90;;;11.90;;
65853;SDS011;52627;48.838;2.402;2022-12-11T11:59:58;20.30;;;10.70;;
65853;SDS011;52627;48.838;2.402;2022-12-11T12:02:35;19.40;;;11.20;;
65853;SDS011;52627;48.838;2.402;2022-12-11T12:05:03;26.30;;;11.30;;
65853;SDS011;52627;48.838;2.402;2022-12-11T12:07:39;23.20;;;11.50;;
65853;SDS011;52627;48.838;2.402;2022-12-11T12:13:39;25.80;;;12.20;;
65853;SDS011;52627;48.838;2.402;2022-12-11T12:16:40;19.50;;;10.90;;
65853;SDS011;52627;48.838;2.402;2022-12-11T12:19:31;23.20;;;12.50;;
65853;SDS011;52627;48.838;2.402;2022-12-11T12:31:29;20.90;;;12.10;;
65853;SDS011;52627;48.838;2.402;2022-12-11T12:37:12;22.80;;;12.20;;
65853;SDS011;52627;48.838;2.402;2022-12-11T12:48:57;21.70;;;12.40;;
65853;SDS011;52627;48.838;2.402;2022-12-11T12:51:25;21.20;;;11.20;;
65853;SDS011;52627;48.838;2.402;2022-12-11T12:54:00;19.80;;;11.80;;
65853;SDS011;52627;48.838;2.402;2022-12-11T12:56:31;23.30;;;12.50;;
65853;SDS011;52627;48.838;2.402;2022-12-11T12:58:58;20.30;;;12.00;;
65853;SDS011;52627;48.838;2.402;2022-12-11T13:01:27;24.60;;;11.80;;
65853;SDS011;52627;48.838;2.402;2022-12-11T13:06:37;18.70;;;11.00;;
65853;SDS011;52627;48.838;2.402;2022-12-11T13:09:28;18.60;;;11.50;;
65853;SDS011;52627;48.838;2.402;2022-12-11T13:11:55;23.10;;;11.90;;
65853;SDS011;52627;48.838;2.402;2022-12-11T13:14:28;22.40;;;12.20;;
65853;SDS011;52627;48.838;2.402;2022-12-11T13:19:47;22.10;;;11.90;;
65853;SDS011;52627;48.838;2.402;2022-12-11T13:24:48;20.80;;;11.10;;
65853;SDS011;52627;48.838;2.402;2022-12-11T13:27:39;21.60;;;10.70;;
65853;SDS011;52627;48.838;2.402;2022-12-11T13:32:42;20.70;;;11.40;;
65853;SDS011;52627;48.838;2.402;2022-12-11T13:35:19;22.00;;;11.00;;
65853;SDS011;52627;48.838;2.402;2022-12-11T13:37:49;23.20;;;11.80;;
65853;SDS011;52627;48.838;2.402;2022-12-11T13:40:20;24.10;;;11.90;;
65853;SDS011;52627;48.838;2.402;2022-12-11T13:42:57;21.60;;;10.60;;
65853;SDS011;52627;48.838;2.402;2022-12-11T13:45:29;18.70;;;11.10;;
65853;SDS011;52627;48.838;2.402;2022-12-11T13:50:46;19.70;;;10.30;;
65853;SDS011;52627;48.838;2.402;2022-12-11T13:53:17;22.50;;;11.40;;
65853;SDS011;52627;48.838;2.402;2022-12-11T13:55:46;18.70;;;10.20;;
65853;SDS011;52627;48.838;2.402;2022-12-11T13:58:22;21.20;;;10.70;;
65853;SDS011;52627;48.838;2.402;2022-12-11T14:03:44;24.20;;;12.20;;
65853;SDS011;52627;48.838;2.402;2022-12-11T14:06:24;22.30;;;11.30;;
65853;SDS011;52627;48.838;2.402;2022-12-11T14:08:54;22.10;;;11.70;;
65853;SDS011;52627;48.838;2.402;2022-12-11T14:11:25;23.90;;;12.20;;
65853;SDS011;52627;48.838;2.402;2022-12-11T14:14:23;21.20;;;11.60;;
65853;SDS011;52627;48.838;2.402;2022-12-11T14:16:59;22.30;;;11.60;;
65853;SDS011;52627;48.838;2.402;2022-12-11T14:19:27;21.10;;;11.30;;
65853;SDS011;52627;48.838;2.402;2022-12-11T14:21:56;18.80;;;9.80;;
65853;SDS011;52627;48.838;2.402;2022-12-11T14:24:33;22.40;;;12.50;;
65853;SDS011;52627;48.838;2.402;2022-12-11T14:27:00;22.40;;;12.50;;
65853;SDS011;52627;48.838;2.402;2022-12-11T14:29:32;23.20;;;12.40;;
65853;SDS011;52627;48.838;2.402;2022-12-11T14:32:04;23.00;;;12.20;;
65853;SDS011;52627;48.838;2.402;2022-12-11T14:34:43;22.80;;;12.00;;
65853;SDS011;52627;48.838;2.402;2022-12-11T14:37:13;24.90;;;12.10;;
65853;SDS011;52627;48.838;2.402;2022-12-11T14:40:00;25.40;;;12.60;;
65853;SDS011;52627;48.838;2.402;2022-12-11T14:42:42;23.50;;;12.30;;
65853;SDS011;52627;48.838;2.402;2022-12-11T14:45:43;26.00;;;13.70;;
65853;SDS011;52627;48.838;2.402;2022-12-11T14:48:20;22.10;;;11.90;;
65853;SDS011;52627;48.838;2.402;2022-12-11T14:50:56;23.80;;;13.30;;
65853;SDS011;52627;48.838;2.402;2022-12-11T14:55:56;21.30;;;11.80;;
65853;SDS011;52627;48.838;2.402;2022-12-11T14:58:27;22.20;;;11.40;;
65853;SDS011;52627;48.838;2.402;2022-12-11T15:00:59;21.40;;;12.00;;
65853;SDS011;52627;48.838;2.402;2022-12-11T15:03:37;25.50;;;13.20;;
65853;SDS011;52627;48.838;2.402;2022-12-11T15:06:27;22.40;;;12.00;;
65853;SDS011;52627;48.838;2.402;2022-12-11T15:08:56;23.40;;;12.10;;
65853;SDS011;52627;48.838;2.402;2022-12-11T15:11:23;28.00;;;14.00;;
65853;SDS011;52627;48.838;2.402;2022-12-11T15:13:58;27.10;;;13.70;;
65853;SDS011;52627;48.838;2.402;2022-12-11T15:16:30;24.00;;;12.90;;
65853;SDS011;52627;48.838;2.402;2022-12-11T15:18:59;29.10;;;14.20;;
65853;SDS011;52627;48.838;2.402;2022-12-11T15:21:36;26.70;;;13.70;;
65853;SDS011;52627;48.838;2.402;2022-12-11T15:24:04;30.40;;;14.20;;
65853;SDS011;52627;48.838;2.402;2022-12-11T15:26:38;32.00;;;15.30;;
65853;SDS011;52627;48.838;2.402;2022-12-11T15:29:35;31.40;;;16.30;;
65853;SDS011;52627;48.838;2.402;2022-12-11T15:34:40;29.50;;;15.20;;
65853;SDS011;52627;48.838;2.402;2022-12-11T15:37:20;33.60;;;16.50;;
65853;SDS011;52627;48.838;2.402;2022-12-11T15:39:55;29.40;;;15.80;;
65853;SDS011;52627;48.838;2.402;2022-12-11T15:42:33;34.40;;;18.70;;
65853;SDS011;52627;48.838;2.402;2022-12-11T15:45:05;33.10;;;16.50;;
65853;SDS011;52627;48.838;2.402;2022-12-11T15:50:14;34.60;;;16.70;;
65853;SDS011;52627;48.838;2.402;2022-12-11T15:52:42;37.50;;;17.30;;
65853;SDS011;52627;48.838;2.402;2022-12-11T15:55:10;32.50;;;16.70;;
65853;SDS011;52627;48.838;2.402;2022-12-11T15:57:39;33.30;;;16.10;;
65853;SDS011;52627;48.838;2.402;2022-12-11T16:00:14;31.80;;;16.10;;
65853;SDS011;52627;48.838;2.402;2022-12-11T16:02:44;35.60;;;15.80;;
65853;SDS011;52627;48.838;2.402;2022-12-11T16:05:13;33.50;;;16.80;;
65853;SDS011;52627;48.838;2.402;2022-12-11T16:07:40;29.70;;;14.40;;
65853;SDS011;52627;48.838;2.402;2022-12-11T16:10:12;31.60;;;15.40;;
65853;SDS011;52627;48.838;2.402;2022-12-11T16:12:40;33.40;;;17.20;;
65853;SDS011;52627;48.838;2.402;2022-12-11T16:15:12;33.00;;;16.30;;
65853;SDS011;52627;48.838;2.402;2022-12-11T16:17:49;33.80;;;15.90;;
65853;SDS011;52627;48.838;2.402;2022-12-11T16:20:16;32.40;;;15.80;;
65853;SDS011;52627;48.838;2.402;2022-12-11T16:22:43;34.80;;;16.20;;
65853;SDS011;52627;48.838;2.402;2022-12-11T16:25:10;29.90;;;15.70;;
65853;SDS011;52627;48.838;2.402;2022-12-11T16:27:37;35.20;;;16.60;;
65853;SDS011;52627;48.838;2.402;2022-12-11T16:30:04;32.10;;;16.70;;
65853;SDS011;52627;48.838;2.402;2022-12-11T16:32:31;34.30;;;17.20;;
65853;SDS011;52627;48.838;2.402;2022-12-11T16:34:58;32.70;;;16.50;;
65853;SDS011;52627;48.838;2.402;2022-12-11T16:37:26;31.20;;;17.60;;
65853;SDS011;52627;48.838;2.402;2022-12-11T16:39:53;35.30;;;18.30;;